Current | Forecast
Updated: 9:00 PM CET on February 22, 2018
Observed at La Coruna Airport, Spain
Temperature 7°C
Windchill 6°C
Humidity 71%
Dew Point 2°C
Wind East at 7 km/h
Pressure 1010 hPa (Falling)
Conditions Clear
Visibility -
UV N/A
Clouds
Yesterday's Maximum 12°C
Yesterday's Minimum 8°C approx.
Yesterday's Heating Degree Days 15 approx.
Sunrise8:21 AM CET
Sunset7:13 PM CET
Moon Rise11:59 AM CET
Moon Set1:11 AM CET
Moon PhaseMoon Phase
Waxing Crescent
Raw METARMETAR LECO 222000Z 09004KT 020V140 CAVOK 07/02 Q1010 NOSIG


Monday
. High: 64° F.
Tuesday
. High: 64° F.
Wednesday
. High: 59° F.
Thursday
. High: 59° F.
Friday
. High: 69° F.
Saturday
. High: 66° F.
Sunday
. High: 68° F.
Monday
. High: 75° F.

Click here for Marine Information
Scientific forecaster discussion (NWS)

Units: English | Metric

Find the Weather for any City, State or Zipcode, or Country:

U.S. State List | Severe Weather | Tropical Storms | Ski Conditions
United States | Canada | Central America | South America | Asia | Europe | Australia | Africa | Islands

Weather Underground

© Copyright 2018
The Weather Company, LLC